sensor_id;sensor_type;location;lat;lon;timestamp;P1;durP1;ratioP1;P2;durP2;ratioP2
37931;SDS011;23758;42.640;23.302;2022-07-23T00:00:26;3.58;;;3.38;;
37931;SDS011;23758;42.640;23.302;2022-07-23T00:02:52;4.05;;;3.75;;
37931;SDS011;23758;42.640;23.302;2022-07-23T00:05:17;4.10;;;3.80;;
37931;SDS011;23758;42.640;23.302;2022-07-23T00:07:43;4.05;;;3.75;;
37931;SDS011;23758;42.640;23.302;2022-07-23T00:10:08;4.05;;;3.80;;
37931;SDS011;23758;42.640;23.302;2022-07-23T00:12:34;4.20;;;3.90;;
37931;SDS011;23758;42.640;23.302;2022-07-23T00:15:00;4.18;;;3.88;;
37931;SDS011;23758;42.640;23.302;2022-07-23T00:17:26;4.22;;;3.92;;
37931;SDS011;23758;42.640;23.302;2022-07-23T00:19:51;4.30;;;4.00;;
37931;SDS011;23758;42.640;23.302;2022-07-23T00:22:18;4.22;;;3.92;;
37931;SDS011;23758;42.640;23.302;2022-07-23T00:24:44;4.20;;;3.90;;
37931;SDS011;23758;42.640;23.302;2022-07-23T00:27:09;3.92;;;3.72;;
37931;SDS011;23758;42.640;23.302;2022-07-23T00:29:35;4.20;;;3.90;;
37931;SDS011;23758;42.640;23.302;2022-07-23T00:32:01;4.47;;;4.18;;
37931;SDS011;23758;42.640;23.302;2022-07-23T00:34:26;3.90;;;3.70;;
37931;SDS011;23758;42.640;23.302;2022-07-23T00:36:52;4.05;;;3.75;;
37931;SDS011;23758;42.640;23.302;2022-07-23T00:39:19;4.40;;;4.10;;
37931;SDS011;23758;42.640;23.302;2022-07-23T00:41:46;4.20;;;3.90;;
37931;SDS011;23758;42.640;23.302;2022-07-23T00:46:44;4.05;;;3.75;;
37931;SDS011;23758;42.640;23.302;2022-07-23T00:49:11;3.78;;;3.53;;
37931;SDS011;23758;42.640;23.302;2022-07-23T00:51:37;3.28;;;3.08;;
37931;SDS011;23758;42.640;23.302;2022-07-23T00:54:02;3.30;;;3.10;;
37931;SDS011;23758;42.640;23.302;2022-07-23T00:56:28;3.20;;;3.00;;
37931;SDS011;23758;42.640;23.302;2022-07-23T00:58:54;4.38;;;2.90;;
37931;SDS011;23758;42.640;23.302;2022-07-23T01:01:21;3.20;;;3.00;;
37931;SDS011;23758;42.640;23.302;2022-07-23T01:03:46;3.20;;;3.00;;
37931;SDS011;23758;42.640;23.302;2022-07-23T01:06:12;3.30;;;3.10;;
37931;SDS011;23758;42.640;23.302;2022-07-23T01:08:37;3.28;;;3.08;;
37931;SDS011;23758;42.640;23.302;2022-07-23T01:11:03;3.78;;;3.47;;
37931;SDS011;23758;42.640;23.302;2022-07-23T01:13:29;3.28;;;3.08;;
37931;SDS011;23758;42.640;23.302;2022-07-23T01:15:54;3.22;;;3.03;;
37931;SDS011;23758;42.640;23.302;2022-07-23T01:18:20;3.40;;;3.20;;
37931;SDS011;23758;42.640;23.302;2022-07-23T01:20:45;3.58;;;3.38;;
37931;SDS011;23758;42.640;23.302;2022-07-23T01:23:11;3.20;;;3.00;;
37931;SDS011;23758;42.640;23.302;2022-07-23T01:25:36;3.38;;;3.08;;
37931;SDS011;23758;42.640;23.302;2022-07-23T01:28:02;3.30;;;3.10;;
37931;SDS011;23758;42.640;23.302;2022-07-23T01:30:27;3.60;;;3.40;;
37931;SDS011;23758;42.640;23.302;2022-07-23T01:32:53;3.25;;;3.05;;
37931;SDS011;23758;42.640;23.302;2022-07-23T01:35:19;3.58;;;3.25;;
37931;SDS011;23758;42.640;23.302;2022-07-23T01:37:44;3.10;;;2.90;;
37931;SDS011;23758;42.640;23.302;2022-07-23T01:40:10;4.35;;;3.63;;
37931;SDS011;23758;42.640;23.302;2022-07-23T01:42:35;2.85;;;2.65;;
37931;SDS011;23758;42.640;23.302;2022-07-23T01:45:01;2.83;;;2.63;;
37931;SDS011;23758;42.640;23.302;2022-07-23T01:47:27;3.30;;;3.10;;
37931;SDS011;23758;42.640;23.302;2022-07-23T01:49:53;2.90;;;2.70;;
37931;SDS011;23758;42.640;23.302;2022-07-23T01:52:18;3.00;;;2.80;;
37931;SDS011;23758;42.640;23.302;2022-07-23T01:54:44;3.22;;;3.00;;
37931;SDS011;23758;42.640;23.302;2022-07-23T01:57:09;3.20;;;2.95;;
37931;SDS011;23758;42.640;23.302;2022-07-23T01:59:35;3.03;;;2.83;;
37931;SDS011;23758;42.640;23.302;2022-07-23T02:02:01;3.10;;;2.90;;
37931;SDS011;23758;42.640;23.302;2022-07-23T02:04:28;2.90;;;2.70;;
37931;SDS011;23758;42.640;23.302;2022-07-23T02:06:54;3.53;;;2.78;;
37931;SDS011;23758;42.640;23.302;2022-07-23T02:09:19;3.00;;;2.80;;
37931;SDS011;23758;42.640;23.302;2022-07-23T02:11:45;3.55;;;3.25;;
37931;SDS011;23758;42.640;23.302;2022-07-23T02:14:11;2.97;;;2.78;;
37931;SDS011;23758;42.640;23.302;2022-07-23T02:16:36;3.10;;;2.90;;
37931;SDS011;23758;42.640;23.302;2022-07-23T02:19:02;4.05;;;3.00;;
37931;SDS011;23758;42.640;23.302;2022-07-23T02:21:28;3.22;;;3.03;;
37931;SDS011;23758;42.640;23.302;2022-07-23T02:23:53;3.53;;;3.33;;
37931;SDS011;23758;42.640;23.302;2022-07-23T02:26:19;3.60;;;3.40;;
37931;SDS011;23758;42.640;23.302;2022-07-23T02:28:45;3.38;;;3.17;;
37931;SDS011;23758;42.640;23.302;2022-07-23T02:31:10;3.40;;;3.20;;
37931;SDS011;23758;42.640;23.302;2022-07-23T02:33:36;5.72;;;3.55;;
37931;SDS011;23758;42.640;23.302;2022-07-23T02:36:01;3.00;;;2.80;;
37931;SDS011;23758;42.640;23.302;2022-07-23T02:38:27;2.97;;;2.78;;
37931;SDS011;23758;42.640;23.302;2022-07-23T02:40:53;2.95;;;2.70;;
37931;SDS011;23758;42.640;23.302;2022-07-23T02:43:18;4.05;;;3.30;;
37931;SDS011;23758;42.640;23.302;2022-07-23T02:45:44;3.92;;;3.63;;
37931;SDS011;23758;42.640;23.302;2022-07-23T02:48:09;3.00;;;2.80;;
37931;SDS011;23758;42.640;23.302;2022-07-23T02:50:37;2.97;;;2.78;;
37931;SDS011;23758;42.640;23.302;2022-07-23T02:53:03;3.08;;;2.88;;
37931;SDS011;23758;42.640;23.302;2022-07-23T02:55:28;3.40;;;3.20;;
37931;SDS011;23758;42.640;23.302;2022-07-23T02:57:54;3.63;;;3.33;;
37931;SDS011;23758;42.640;23.302;2022-07-23T03:00:19;3.22;;;3.03;;
37931;SDS011;23758;42.640;23.302;2022-07-23T03:02:45;6.05;;;5.65;;
37931;SDS011;23758;42.640;23.302;2022-07-23T03:05:10;4.75;;;3.85;;
37931;SDS011;23758;42.640;23.302;2022-07-23T03:07:36;2.97;;;2.78;;
37931;SDS011;23758;42.640;23.302;2022-07-23T03:10:02;2.95;;;2.75;;
37931;SDS011;23758;42.640;23.302;2022-07-23T03:12:28;2.90;;;2.70;;
37931;SDS011;23758;42.640;23.302;2022-07-23T03:14:53;3.47;;;3.17;;
37931;SDS011;23758;42.640;23.302;2022-07-23T03:17:19;2.80;;;2.60;;
37931;SDS011;23758;42.640;23.302;2022-07-23T03:19:44;2.90;;;2.70;;
37931;SDS011;23758;42.640;23.302;2022-07-23T03:22:10;3.10;;;2.90;;
37931;SDS011;23758;42.640;23.302;2022-07-23T03:24:35;2.65;;;2.45;;
37931;SDS011;23758;42.640;23.302;2022-07-23T03:27:19;2.80;;;2.60;;
37931;SDS011;23758;42.640;23.302;2022-07-23T03:32:18;2.35;;;2.25;;
37931;SDS011;23758;42.640;23.302;2022-07-23T03:34:43;2.40;;;2.30;;
37931;SDS011;23758;42.640;23.302;2022-07-23T03:37:09;2.25;;;2.15;;
37931;SDS011;23758;42.640;23.302;2022-07-23T03:39:34;2.63;;;2.42;;
37931;SDS011;23758;42.640;23.302;2022-07-23T03:42:00;2.40;;;2.30;;
37931;SDS011;23758;42.640;23.302;2022-07-23T03:44:26;2.65;;;2.45;;
37931;SDS011;23758;42.640;23.302;2022-07-23T03:46:52;2.63;;;2.42;;
37931;SDS011;23758;42.640;23.302;2022-07-23T03:49:17;2.65;;;2.45;;
37931;SDS011;23758;42.640;23.302;2022-07-23T03:51:43;2.30;;;2.20;;
37931;SDS011;23758;42.640;23.302;2022-07-23T03:54:08;2.38;;;2.28;;
37931;SDS011;23758;42.640;23.302;2022-07-23T03:56:34;2.20;;;2.10;;
37931;SDS011;23758;42.640;23.302;2022-07-23T03:59:00;3.13;;;2.55;;
37931;SDS011;23758;42.640;23.302;2022-07-23T04:01:26;2.53;;;2.40;;
37931;SDS011;23758;42.640;23.302;2022-07-23T04:03:51;2.45;;;2.30;;
37931;SDS011;23758;42.640;23.302;2022-07-23T04:06:17;2.40;;;2.28;;
37931;SDS011;23758;42.640;23.302;2022-07-23T04:08:42;2.53;;;2.33;;
37931;SDS011;23758;42.640;23.302;2022-07-23T04:11:08;2.80;;;2.60;;
37931;SDS011;23758;42.640;23.302;2022-07-23T04:13:33;2.80;;;2.60;;
37931;SDS011;23758;42.640;23.302;2022-07-23T04:15:59;2.92;;;2.70;;
37931;SDS011;23758;42.640;23.302;2022-07-23T04:18:24;2.45;;;2.17;;
37931;SDS011;23758;42.640;23.302;2022-07-23T04:20:50;2.38;;;2.22;;
37931;SDS011;23758;42.640;23.302;2022-07-23T04:23:16;3.05;;;2.75;;
37931;SDS011;23758;42.640;23.302;2022-07-23T04:25:42;2.55;;;2.35;;
37931;SDS011;23758;42.640;23.302;2022-07-23T04:28:08;2.38;;;2.17;;
37931;SDS011;23758;42.640;23.302;2022-07-23T04:30:34;2.20;;;2.10;;
37931;SDS011;23758;42.640;23.302;2022-07-23T04:32:59;5.40;;;2.17;;
37931;SDS011;23758;42.640;23.302;2022-07-23T04:35:25;2.38;;;2.22;;
37931;SDS011;23758;42.640;23.302;2022-07-23T04:37:51;4.10;;;3.20;;
37931;SDS011;23758;42.640;23.302;2022-07-23T04:40:16;3.45;;;3.25;;
37931;SDS011;23758;42.640;23.302;2022-07-23T04:42:42;3.17;;;2.97;;
37931;SDS011;23758;42.640;23.302;2022-07-23T04:45:08;3.70;;;3.50;;
37931;SDS011;23758;42.640;23.302;2022-07-23T04:47:34;3.50;;;3.30;;
37931;SDS011;23758;42.640;23.302;2022-07-23T04:49:59;3.30;;;3.10;;
37931;SDS011;23758;42.640;23.302;2022-07-23T04:52:25;3.00;;;2.80;;
37931;SDS011;23758;42.640;23.302;2022-07-23T04:54:50;2.42;;;2.33;;
37931;SDS011;23758;42.640;23.302;2022-07-23T04:57:16;2.65;;;2.45;;
37931;SDS011;23758;42.640;23.302;2022-07-23T04:59:41;1.60;;;1.50;;
37931;SDS011;23758;42.640;23.302;2022-07-23T05:02:07;1.45;;;1.35;;
37931;SDS011;23758;42.640;23.302;2022-07-23T05:04:32;1.50;;;1.40;;
37931;SDS011;23758;42.640;23.302;2022-07-23T05:06:58;7.90;;;1.35;;
37931;SDS011;23758;42.640;23.302;2022-07-23T05:09:24;1.48;;;1.30;;
37931;SDS011;23758;42.640;23.302;2022-07-23T05:11:49;1.63;;;1.52;;
37931;SDS011;23758;42.640;23.302;2022-07-23T05:14:15;1.13;;;1.10;;
37931;SDS011;23758;42.640;23.302;2022-07-23T05:16:40;1.10;;;1.10;;
37931;SDS011;23758;42.640;23.302;2022-07-23T05:19:06;0.82;;;0.82;;
37931;SDS011;23758;42.640;23.302;2022-07-23T05:21:31;0.88;;;0.88;;
37931;SDS011;23758;42.640;23.302;2022-07-23T05:23:57;0.90;;;0.90;;
37931;SDS011;23758;42.640;23.302;2022-07-23T05:26:23;3.15;;;1.10;;
37931;SDS011;23758;42.640;23.302;2022-07-23T05:28:49;6.13;;;1.27;;
37931;SDS011;23758;42.640;23.302;2022-07-23T05:31:14;0.80;;;0.80;;
37931;SDS011;23758;42.640;23.302;2022-07-23T05:33:40;1.45;;;1.20;;
37931;SDS011;23758;42.640;23.302;2022-07-23T05:36:06;1.48;;;1.38;;
37931;SDS011;23758;42.640;23.302;2022-07-23T05:38:31;1.35;;;1.25;;
37931;SDS011;23758;42.640;23.302;2022-07-23T05:40:57;1.40;;;1.30;;
37931;SDS011;23758;42.640;23.302;2022-07-23T05:43:23;1.17;;;1.08;;
37931;SDS011;23758;42.640;23.302;2022-07-23T05:45:48;0.88;;;0.88;;
37931;SDS011;23758;42.640;23.302;2022-07-23T05:48:14;2.33;;;1.17;;
37931;SDS011;23758;42.640;23.302;2022-07-23T05:50:39;0.70;;;0.70;;
37931;SDS011;23758;42.640;23.302;2022-07-23T05:53:05;4.45;;;1.20;;
37931;SDS011;23758;42.640;23.302;2022-07-23T05:55:30;4.53;;;1.63;;
37931;SDS011;23758;42.640;23.302;2022-07-23T05:57:56;1.05;;;1.02;;
37931;SDS011;23758;42.640;23.302;2022-07-23T06:00:22;1.40;;;1.30;;
37931;SDS011;23758;42.640;23.302;2022-07-23T06:02:49;1.58;;;1.48;;
37931;SDS011;23758;42.640;23.302;2022-07-23T06:05:14;1.52;;;1.42;;
37931;SDS011;23758;42.640;23.302;2022-07-23T06:07:40;1.90;;;1.80;;
37931;SDS011;23758;42.640;23.302;2022-07-23T06:10:06;1.30;;;1.25;;
37931;SDS011;23758;42.640;23.302;2022-07-23T06:12:32;1.85;;;1.40;;
37931;SDS011;23758;42.640;23.302;2022-07-23T06:14:57;1.85;;;1.50;;
37931;SDS011;23758;42.640;23.302;2022-07-23T06:17:23;1.98;;;1.83;;
37931;SDS011;23758;42.640;23.302;2022-07-23T06:19:49;1.50;;;1.40;;
37931;SDS011;23758;42.640;23.302;2022-07-23T06:22:14;8.32;;;2.38;;
37931;SDS011;23758;42.640;23.302;2022-07-23T06:24:40;3.10;;;1.67;;
37931;SDS011;23758;42.640;23.302;2022-07-23T06:27:06;1.70;;;1.60;;
37931;SDS011;23758;42.640;23.302;2022-07-23T06:29:31;2.33;;;2.03;;
37931;SDS011;23758;42.640;23.302;2022-07-23T06:31:57;2.40;;;1.98;;
37931;SDS011;23758;42.640;23.302;2022-07-23T06:34:22;1.67;;;1.58;;
37931;SDS011;23758;42.640;23.302;2022-07-23T06:36:48;2.33;;;1.95;;
37931;SDS011;23758;42.640;23.302;2022-07-23T06:39:13;2.10;;;1.92;;
37931;SDS011;23758;42.640;23.302;2022-07-23T06:41:39;2.13;;;2.03;;
37931;SDS011;23758;42.640;23.302;2022-07-23T06:44:05;1.83;;;1.73;;
37931;SDS011;23758;42.640;23.302;2022-07-23T06:46:30;2.00;;;1.90;;
37931;SDS011;23758;42.640;23.302;2022-07-23T06:48:56;3.38;;;2.10;;
37931;SDS011;23758;42.640;23.302;2022-07-23T06:51:21;7.03;;;2.72;;
37931;SDS011;23758;42.640;23.302;2022-07-23T06:53:47;1.73;;;1.63;;
37931;SDS011;23758;42.640;23.302;2022-07-23T06:56:12;1.85;;;1.75;;
37931;SDS011;23758;42.640;23.302;2022-07-23T06:58:38;1.92;;;1.83;;
37931;SDS011;23758;42.640;23.302;2022-07-23T07:01:03;2.28;;;1.67;;
37931;SDS011;23758;42.640;23.302;2022-07-23T07:03:28;1.40;;;1.30;;
37931;SDS011;23758;42.640;23.302;2022-07-23T07:05:54;1.70;;;1.60;;
37931;SDS011;23758;42.640;23.302;2022-07-23T07:08:22;2.17;;;1.85;;
37931;SDS011;23758;42.640;23.302;2022-07-23T07:10:48;1.83;;;1.73;;
37931;SDS011;23758;42.640;23.302;2022-07-23T07:13:13;1.75;;;1.65;;
37931;SDS011;23758;42.640;23.302;2022-07-23T07:15:39;4.38;;;1.85;;
37931;SDS011;23758;42.640;23.302;2022-07-23T07:18:04;1.90;;;1.80;;
37931;SDS011;23758;42.640;23.302;2022-07-23T07:20:30;1.70;;;1.60;;
37931;SDS011;23758;42.640;23.302;2022-07-23T07:22:55;2.90;;;1.83;;
37931;SDS011;23758;42.640;23.302;2022-07-23T07:25:21;1.80;;;1.70;;
37931;SDS011;23758;42.640;23.302;2022-07-23T07:27:46;1.63;;;1.52;;
37931;SDS011;23758;42.640;23.302;2022-07-23T07:30:12;1.70;;;1.60;;
37931;SDS011;23758;42.640;23.302;2022-07-23T07:32:38;1.70;;;1.60;;
37931;SDS011;23758;42.640;23.302;2022-07-23T07:35:04;2.70;;;1.50;;
37931;SDS011;23758;42.640;23.302;2022-07-23T07:37:30;1.90;;;1.80;;
37931;SDS011;23758;42.640;23.302;2022-07-23T07:39:56;1.67;;;1.58;;
37931;SDS011;23758;42.640;23.302;2022-07-23T07:42:22;1.58;;;1.48;;
37931;SDS011;23758;42.640;23.302;2022-07-23T07:44:47;1.92;;;1.83;;
37931;SDS011;23758;42.640;23.302;2022-07-23T07:47:13;1.63;;;1.52;;
37931;SDS011;23758;42.640;23.302;2022-07-23T07:49:40;1.95;;;1.80;;
37931;SDS011;23758;42.640;23.302;2022-07-23T07:52:06;1.70;;;1.60;;
37931;SDS011;23758;42.640;23.302;2022-07-23T07:54:32;2.72;;;2.15;;
37931;SDS011;23758;42.640;23.302;2022-07-23T07:56:58;2.97;;;2.40;;
37931;SDS011;23758;42.640;23.302;2022-07-23T07:59:23;1.90;;;1.75;;
37931;SDS011;23758;42.640;23.302;2022-07-23T08:01:49;1.55;;;1.45;;
37931;SDS011;23758;42.640;23.302;2022-07-23T08:04:14;4.28;;;1.73;;
37931;SDS011;23758;42.640;23.302;2022-07-23T08:06:40;1.65;;;1.55;;
37931;SDS011;23758;42.640;23.302;2022-07-23T08:09:05;1.73;;;1.63;;
37931;SDS011;23758;42.640;23.302;2022-07-23T08:11:31;1.42;;;1.33;;
37931;SDS011;23758;42.640;23.302;2022-07-23T08:13:56;1.23;;;1.20;;
37931;SDS011;23758;42.640;23.302;2022-07-23T08:16:22;1.48;;;1.38;;
37931;SDS011;23758;42.640;23.302;2022-07-23T08:18:47;1.55;;;1.45;;
37931;SDS011;23758;42.640;23.302;2022-07-23T08:21:13;3.08;;;1.52;;
37931;SDS011;23758;42.640;23.302;2022-07-23T08:23:38;1.30;;;1.20;;
37931;SDS011;23758;42.640;23.302;2022-07-23T08:26:04;1.58;;;1.48;;
37931;SDS011;23758;42.640;23.302;2022-07-23T08:28:29;2.47;;;2.00;;
37931;SDS011;23758;42.640;23.302;2022-07-23T08:30:58;3.63;;;1.70;;
37931;SDS011;23758;42.640;23.302;2022-07-23T08:33:23;5.32;;;1.58;;
37931;SDS011;23758;42.640;23.302;2022-07-23T08:35:49;1.33;;;1.25;;
37931;SDS011;23758;42.640;23.302;2022-07-23T08:38:18;1.48;;;1.38;;
37931;SDS011;23758;42.640;23.302;2022-07-23T08:40:46;1.30;;;1.20;;
37931;SDS011;23758;42.640;23.302;2022-07-23T08:43:32;1.63;;;1.23;;
37931;SDS011;23758;42.640;23.302;2022-07-23T08:46:01;1.40;;;1.30;;
37931;SDS011;23758;42.640;23.302;2022-07-23T08:48:28;1.50;;;1.40;;
37931;SDS011;23758;42.640;23.302;2022-07-23T08:50:55;1.15;;;1.13;;
37931;SDS011;23758;42.640;23.302;2022-07-23T08:53:22;1.50;;;1.40;;
37931;SDS011;23758;42.640;23.302;2022-07-23T08:55:53;1.40;;;1.30;;
37931;SDS011;23758;42.640;23.302;2022-07-23T08:58:20;1.67;;;1.27;;
37931;SDS011;23758;42.640;23.302;2022-07-23T09:00:46;1.67;;;1.50;;
37931;SDS011;23758;42.640;23.302;2022-07-23T09:03:16;6.65;;;1.98;;
37931;SDS011;23758;42.640;23.302;2022-07-23T09:05:46;1.50;;;1.40;;
37931;SDS011;23758;42.640;23.302;2022-07-23T09:16:13;1.80;;;1.43;;
37931;SDS011;23758;42.640;23.302;2022-07-23T09:19:01;1.48;;;1.38;;
37931;SDS011;23758;42.640;23.302;2022-07-23T09:26:37;1.65;;;1.50;;
37931;SDS011;23758;42.640;23.302;2022-07-23T09:29:11;1.25;;;1.15;;
37931;SDS011;23758;42.640;23.302;2022-07-23T09:36:54;1.08;;;1.08;;
37931;SDS011;23758;42.640;23.302;2022-07-23T09:41:56;1.30;;;1.20;;
37931;SDS011;23758;42.640;23.302;2022-07-23T09:44:22;1.40;;;1.30;;
37931;SDS011;23758;42.640;23.302;2022-07-23T09:46:49;1.48;;;1.38;;
37931;SDS011;23758;42.640;23.302;2022-07-23T09:49:22;2.40;;;1.65;;
37931;SDS011;23758;42.640;23.302;2022-07-23T09:51:54;1.35;;;1.25;;
37931;SDS011;23758;42.640;23.302;2022-07-23T09:54:23;1.10;;;1.10;;
37931;SDS011;23758;42.640;23.302;2022-07-23T09:56:52;1.10;;;1.10;;
37931;SDS011;23758;42.640;23.302;2022-07-23T09:59:18;1.48;;;1.17;;
37931;SDS011;23758;42.640;23.302;2022-07-23T10:01:44;12.82;;;2.03;;
37931;SDS011;23758;42.640;23.302;2022-07-23T10:04:10;1.38;;;1.27;;
37931;SDS011;23758;42.640;23.302;2022-07-23T10:06:37;1.20;;;1.10;;
37931;SDS011;23758;42.640;23.302;2022-07-23T10:09:04;0.90;;;0.90;;
37931;SDS011;23758;42.640;23.302;2022-07-23T10:11:30;1.10;;;1.10;;
37931;SDS011;23758;42.640;23.302;2022-07-23T10:13:56;1.30;;;1.20;;
37931;SDS011;23758;42.640;23.302;2022-07-23T10:16:26;1.30;;;1.20;;
37931;SDS011;23758;42.640;23.302;2022-07-23T10:18:51;1.10;;;1.05;;
37931;SDS011;23758;42.640;23.302;2022-07-23T10:27:11;1.20;;;1.08;;
37931;SDS011;23758;42.640;23.302;2022-07-23T10:29:55;1.00;;;0.90;;
37931;SDS011;23758;42.640;23.302;2022-07-23T10:35:07;1.30;;;1.17;;
37931;SDS011;23758;42.640;23.302;2022-07-23T10:37:36;1.30;;;1.20;;
37931;SDS011;23758;42.640;23.302;2022-07-23T10:42:47;0.93;;;0.93;;
37931;SDS011;23758;42.640;23.302;2022-07-23T10:45:33;1.98;;;1.23;;
37931;SDS011;23758;42.640;23.302;2022-07-23T10:48:17;1.20;;;1.10;;
37931;SDS011;23758;42.640;23.302;2022-07-23T10:50:44;1.10;;;1.08;;
37931;SDS011;23758;42.640;23.302;2022-07-23T10:59:19;1.33;;;1.17;;
37931;SDS011;23758;42.640;23.302;2022-07-23T11:01:45;1.00;;;1.00;;
37931;SDS011;23758;42.640;23.302;2022-07-23T11:04:10;1.30;;;1.20;;
37931;SDS011;23758;42.640;23.302;2022-07-23T11:09:24;1.10;;;1.10;;
37931;SDS011;23758;42.640;23.302;2022-07-23T11:12:15;1.23;;;1.13;;
37931;SDS011;23758;42.640;23.302;2022-07-23T11:17:23;3.15;;;1.13;;
37931;SDS011;23758;42.640;23.302;2022-07-23T11:22:46;1.15;;;1.05;;
37931;SDS011;23758;42.640;23.302;2022-07-23T11:27:51;1.35;;;1.20;;
37931;SDS011;23758;42.640;23.302;2022-07-23T11:32:51;1.00;;;1.00;;
37931;SDS011;23758;42.640;23.302;2022-07-23T11:35:21;1.33;;;1.23;;
37931;SDS011;23758;42.640;23.302;2022-07-23T11:37:50;1.30;;;1.20;;
37931;SDS011;23758;42.640;23.302;2022-07-23T11:40:19;2.22;;;1.33;;
37931;SDS011;23758;42.640;23.302;2022-07-23T11:42:55;1.45;;;1.35;;
37931;SDS011;23758;42.640;23.302;2022-07-23T11:45:29;1.23;;;1.13;;
37931;SDS011;23758;42.640;23.302;2022-07-23T11:47:59;3.63;;;1.80;;
37931;SDS011;23758;42.640;23.302;2022-07-23T11:50:25;1.20;;;1.10;;
37931;SDS011;23758;42.640;23.302;2022-07-23T11:52:51;1.27;;;1.17;;
37931;SDS011;23758;42.640;23.302;2022-07-23T11:55:17;0.90;;;0.90;;
37931;SDS011;23758;42.640;23.302;2022-07-23T11:57:44;1.95;;;1.52;;
37931;SDS011;23758;42.640;23.302;2022-07-23T12:00:17;1.20;;;1.05;;
37931;SDS011;23758;42.640;23.302;2022-07-23T12:02:49;1.13;;;1.02;;
37931;SDS011;23758;42.640;23.302;2022-07-23T12:05:17;1.15;;;1.05;;
37931;SDS011;23758;42.640;23.302;2022-07-23T12:07:44;1.10;;;1.00;;
37931;SDS011;23758;42.640;23.302;2022-07-23T12:10:14;1.30;;;1.20;;
37931;SDS011;23758;42.640;23.302;2022-07-23T12:12:51;0.95;;;0.95;;
37931;SDS011;23758;42.640;23.302;2022-07-23T12:15:20;0.90;;;0.90;;
37931;SDS011;23758;42.640;23.302;2022-07-23T12:18:07;1.35;;;1.25;;
37931;SDS011;23758;42.640;23.302;2022-07-23T12:20:36;1.83;;;1.55;;
37931;SDS011;23758;42.640;23.302;2022-07-23T12:23:05;1.20;;;1.10;;
37931;SDS011;23758;42.640;23.302;2022-07-23T12:25:32;0.80;;;0.80;;
37931;SDS011;23758;42.640;23.302;2022-07-23T12:28:10;1.95;;;1.35;;
37931;SDS011;23758;42.640;23.302;2022-07-23T12:30:41;1.52;;;1.30;;
37931;SDS011;23758;42.640;23.302;2022-07-23T12:33:26;1.48;;;1.23;;
37931;SDS011;23758;42.640;23.302;2022-07-23T12:35:54;1.50;;;1.20;;
37931;SDS011;23758;42.640;23.302;2022-07-23T12:38:21;0.95;;;0.95;;
37931;SDS011;23758;42.640;23.302;2022-07-23T12:40:49;6.47;;;1.85;;
37931;SDS011;23758;42.640;23.302;2022-07-23T12:45:54;2.13;;;1.45;;
37931;SDS011;23758;42.640;23.302;2022-07-23T12:56:12;1.00;;;1.00;;
37931;SDS011;23758;42.640;23.302;2022-07-23T12:58:40;1.20;;;1.10;;
37931;SDS011;23758;42.640;23.302;2022-07-23T13:06:36;1.35;;;1.25;;
37931;SDS011;23758;42.640;23.302;2022-07-23T13:09:06;1.55;;;1.17;;
37931;SDS011;23758;42.640;23.302;2022-07-23T13:11:33;1.00;;;1.00;;
37931;SDS011;23758;42.640;23.302;2022-07-23T13:13:59;1.30;;;1.20;;
37931;SDS011;23758;42.640;23.302;2022-07-23T13:16:26;1.00;;;1.00;;
37931;SDS011;23758;42.640;23.302;2022-07-23T13:18:52;1.55;;;1.45;;
37931;SDS011;23758;42.640;23.302;2022-07-23T13:21:17;1.85;;;1.58;;
37931;SDS011;23758;42.640;23.302;2022-07-23T13:23:43;1.83;;;1.30;;
37931;SDS011;23758;42.640;23.302;2022-07-23T13:26:08;1.42;;;1.08;;
37931;SDS011;23758;42.640;23.302;2022-07-23T13:28:34;4.32;;;1.98;;
37931;SDS011;23758;42.640;23.302;2022-07-23T13:30:59;1.10;;;0.98;;
37931;SDS011;23758;42.640;23.302;2022-07-23T13:33:25;1.52;;;1.42;;
37931;SDS011;23758;42.640;23.302;2022-07-23T13:35:51;0.80;;;0.80;;
37931;SDS011;23758;42.640;23.302;2022-07-23T13:38:17;1.33;;;1.23;;
37931;SDS011;23758;42.640;23.302;2022-07-23T13:40:49;1.00;;;1.00;;
37931;SDS011;23758;42.640;23.302;2022-07-23T13:43:17;0.90;;;0.90;;
37931;SDS011;23758;42.640;23.302;2022-07-23T13:45:43;1.35;;;1.25;;
37931;SDS011;23758;42.640;23.302;2022-07-23T13:48:10;2.20;;;1.30;;
37931;SDS011;23758;42.640;23.302;2022-07-23T13:50:36;1.17;;;1.10;;
37931;SDS011;23758;42.640;23.302;2022-07-23T13:53:03;1.13;;;1.10;;
37931;SDS011;23758;42.640;23.302;2022-07-23T13:55:30;1.83;;;1.17;;
37931;SDS011;23758;42.640;23.302;2022-07-23T13:57:56;1.00;;;0.95;;
37931;SDS011;23758;42.640;23.302;2022-07-23T14:00:22;2.55;;;1.10;;
37931;SDS011;23758;42.640;23.302;2022-07-23T14:02:47;1.10;;;1.00;;
37931;SDS011;23758;42.640;23.302;2022-07-23T14:05:13;1.15;;;1.05;;
37931;SDS011;23758;42.640;23.302;2022-07-23T14:07:38;1.30;;;1.20;;
37931;SDS011;23758;42.640;23.302;2022-07-23T14:10:05;0.95;;;0.95;;
37931;SDS011;23758;42.640;23.302;2022-07-23T14:12:32;1.40;;;1.30;;
37931;SDS011;23758;42.640;23.302;2022-07-23T14:14:58;1.98;;;1.35;;
37931;SDS011;23758;42.640;23.302;2022-07-23T14:17:23;2.53;;;1.83;;
37931;SDS011;23758;42.640;23.302;2022-07-23T14:19:49;1.10;;;1.10;;
37931;SDS011;23758;42.640;23.302;2022-07-23T14:22:15;1.33;;;1.23;;
37931;SDS011;23758;42.640;23.302;2022-07-23T14:24:41;1.20;;;1.13;;
37931;SDS011;23758;42.640;23.302;2022-07-23T14:27:07;1.13;;;1.10;;
37931;SDS011;23758;42.640;23.302;2022-07-23T14:29:32;1.17;;;1.08;;
37931;SDS011;23758;42.640;23.302;2022-07-23T14:31:58;1.30;;;1.20;;
37931;SDS011;23758;42.640;23.302;2022-07-23T14:34:25;1.92;;;1.50;;
37931;SDS011;23758;42.640;23.302;2022-07-23T14:36:51;1.00;;;1.00;;
37931;SDS011;23758;42.640;23.302;2022-07-23T14:39:16;3.35;;;1.70;;
37931;SDS011;23758;42.640;23.302;2022-07-23T14:41:42;1.20;;;1.10;;
37931;SDS011;23758;42.640;23.302;2022-07-23T14:44:07;4.88;;;1.50;;
37931;SDS011;23758;42.640;23.302;2022-07-23T14:46:33;1.20;;;1.10;;
37931;SDS011;23758;42.640;23.302;2022-07-23T14:48:58;0.90;;;0.90;;
37931;SDS011;23758;42.640;23.302;2022-07-23T14:51:24;1.30;;;1.20;;
37931;SDS011;23758;42.640;23.302;2022-07-23T14:53:50;1.58;;;1.35;;
37931;SDS011;23758;42.640;23.302;2022-07-23T14:56:15;1.20;;;1.10;;
37931;SDS011;23758;42.640;23.302;2022-07-23T14:58:41;1.15;;;1.10;;
37931;SDS011;23758;42.640;23.302;2022-07-23T15:01:07;1.08;;;1.08;;
37931;SDS011;23758;42.640;23.302;2022-07-23T15:03:33;1.00;;;1.00;;
37931;SDS011;23758;42.640;23.302;2022-07-23T15:05:59;3.35;;;1.65;;
37931;SDS011;23758;42.640;23.302;2022-07-23T15:08:24;1.48;;;1.38;;
37931;SDS011;23758;42.640;23.302;2022-07-23T15:10:50;1.13;;;1.05;;
37931;SDS011;23758;42.640;23.302;2022-07-23T15:13:15;2.38;;;1.08;;
37931;SDS011;23758;42.640;23.302;2022-07-23T15:15:41;1.20;;;1.10;;
37931;SDS011;23758;42.640;23.302;2022-07-23T15:18:07;1.27;;;1.17;;
37931;SDS011;23758;42.640;23.302;2022-07-23T15:20:32;1.25;;;1.15;;
37931;SDS011;23758;42.640;23.302;2022-07-23T15:22:58;1.25;;;1.15;;
37931;SDS011;23758;42.640;23.302;2022-07-23T15:25:24;1.42;;;1.33;;
37931;SDS011;23758;42.640;23.302;2022-07-23T15:27:49;1.60;;;1.50;;
37931;SDS011;23758;42.640;23.302;2022-07-23T15:30:15;1.30;;;1.20;;
37931;SDS011;23758;42.640;23.302;2022-07-23T15:32:41;2.00;;;1.30;;
37931;SDS011;23758;42.640;23.302;2022-07-23T15:35:06;1.27;;;1.17;;
37931;SDS011;23758;42.640;23.302;2022-07-23T15:37:33;1.65;;;1.40;;
37931;SDS011;23758;42.640;23.302;2022-07-23T15:39:59;2.63;;;1.40;;
37931;SDS011;23758;42.640;23.302;2022-07-23T15:42:25;3.80;;;1.38;;